createdAt,value
2018-11-25T00:00:40.275Z,95.10
2018-11-25T00:03:07.869Z,95.10
2018-11-25T00:05:35.362Z,95.10
2018-11-25T00:08:17.890Z,95.10
2018-11-25T00:10:45.488Z,95.10
2018-11-25T00:13:12.954Z,95.20
2018-11-25T00:15:40.502Z,95.20
2018-11-25T00:18:08.038Z,95.20
2018-11-25T00:20:35.547Z,95.20
2018-11-25T00:23:03.079Z,95.30
2018-11-25T00:25:30.739Z,95.30
2018-11-25T00:27:58.201Z,95.30
2018-11-25T00:30:26.077Z,95.30
2018-11-25T00:32:53.742Z,95.40
2018-11-25T00:35:21.410Z,95.40
2018-11-25T00:37:49.215Z,95.40
2018-11-25T00:40:16.690Z,95.40
2018-11-25T00:42:44.663Z,95.40
2018-11-25T00:45:15.224Z,95.40
2018-11-25T00:47:42.734Z,95.40
2018-11-25T00:50:11.527Z,95.40
2018-11-25T00:52:39.101Z,95.40
2018-11-25T00:55:08.639Z,95.40
2018-11-25T00:57:36.156Z,95.40
2018-11-25T01:00:05.427Z,95.50
2018-11-25T01:02:32.909Z,95.50
2018-11-25T01:05:00.440Z,95.50
2018-11-25T01:07:27.938Z,95.50
2018-11-25T01:09:55.494Z,95.50
2018-11-25T01:12:23.547Z,95.50
2018-11-25T01:14:51.039Z,95.50
2018-11-25T01:17:18.570Z,95.50
2018-11-25T01:19:46.041Z,95.50
2018-11-25T01:22:13.613Z,95.60
2018-11-25T01:24:41.146Z,95.60
2018-11-25T01:27:08.899Z,95.60
2018-11-25T01:29:36.599Z,95.50
2018-11-25T01:32:04.137Z,95.60
2018-11-25T01:34:31.737Z,95.60
2018-11-25T01:36:59.329Z,95.60
2018-11-25T01:39:26.790Z,95.70
2018-11-25T01:41:54.262Z,95.60
2018-11-25T01:44:22.464Z,95.60
2018-11-25T01:46:49.931Z,95.60
2018-11-25T01:49:17.450Z,95.60
2018-11-25T01:51:44.988Z,95.70
2018-11-25T01:54:12.448Z,95.70
2018-11-25T01:56:39.951Z,95.90
2018-11-25T01:59:07.447Z,95.70
2018-11-25T02:01:35.002Z,95.70
2018-11-25T02:04:02.458Z,95.70
2018-11-25T02:06:30.172Z,95.70
2018-11-25T02:08:57.764Z,96.00
2018-11-25T02:11:25.890Z,95.70
2018-11-25T02:13:53.375Z,95.70
2018-11-25T02:16:21.289Z,95.70
2018-11-25T02:18:48.766Z,95.70
2018-11-25T02:21:16.247Z,95.70
2018-11-25T02:23:43.739Z,95.80
2018-11-25T02:26:11.271Z,95.80
2018-11-25T02:28:38.724Z,95.80
2018-11-25T02:31:08.053Z,95.80
2018-11-25T02:33:35.562Z,95.80
2018-11-25T02:36:03.065Z,95.80
2018-11-25T02:38:30.563Z,95.80
2018-11-25T02:40:58.057Z,95.80
2018-11-25T02:43:26.010Z,95.80
2018-11-25T02:45:53.502Z,95.80
2018-11-25T02:48:21.673Z,95.80
2018-11-25T02:50:49.127Z,95.80
2018-11-25T02:53:16.642Z,95.90
2018-11-25T02:55:44.090Z,95.90
2018-11-25T02:58:11.651Z,95.90
2018-11-25T03:00:39.119Z,95.90
2018-11-25T03:03:06.594Z,95.90
2018-11-25T03:05:34.342Z,95.90
2018-11-25T03:08:01.895Z,95.90
2018-11-25T03:10:29.398Z,95.90
2018-11-25T03:12:56.947Z,95.90
2018-11-25T03:15:24.418Z,95.90
2018-11-25T03:17:51.958Z,95.90
2018-11-25T03:20:19.406Z,95.90
2018-11-25T03:22:47.225Z,96.00
2018-11-25T03:25:18.758Z,95.90
2018-11-25T03:27:46.306Z,95.90
2018-11-25T03:30:15.714Z,95.90
2018-11-25T03:32:43.870Z,95.90
2018-11-25T03:35:12.067Z,96.00
2018-11-25T03:37:39.629Z,96.00
2018-11-25T03:40:08.660Z,96.00
2018-11-25T03:42:36.154Z,96.00
2018-11-25T03:45:04.963Z,96.00
2018-11-25T03:47:32.467Z,96.30
2018-11-25T03:49:59.987Z,96.00
2018-11-25T03:52:28.248Z,96.00
2018-11-25T03:54:55.802Z,96.00
2018-11-25T03:57:23.890Z,96.00
2018-11-25T03:59:51.399Z,96.00
2018-11-25T04:02:18.930Z,96.00
2018-11-25T04:04:46.398Z,96.10
2018-11-25T04:07:13.882Z,96.10
2018-11-25T04:09:41.398Z,96.00
2018-11-25T04:12:08.974Z,96.10
2018-11-25T04:14:36.587Z,96.10
2018-11-25T04:17:04.407Z,96.10
2018-11-25T04:19:31.985Z,96.00
2018-11-25T04:21:59.429Z,96.00
2018-11-25T04:24:28.005Z,96.00
2018-11-25T04:26:55.542Z,96.00
2018-11-25T04:29:23.309Z,96.00
2018-11-25T04:31:50.933Z,96.00
2018-11-25T04:34:18.384Z,96.00
2018-11-25T04:36:45.902Z,96.00
2018-11-25T04:39:13.385Z,96.00
2018-11-25T04:41:40.873Z,96.00
2018-11-25T04:44:08.380Z,96.00
2018-11-25T04:46:35.926Z,96.00
2018-11-25T04:49:03.430Z,96.00
2018-11-25T04:51:30.965Z,96.00
2018-11-25T04:53:58.554Z,96.00
2018-11-25T04:56:26.269Z,96.00
2018-11-25T04:58:53.808Z,96.00
2018-11-25T05:01:21.964Z,96.00
2018-11-25T05:03:49.450Z,96.00
2018-11-25T05:06:17.901Z,95.90
2018-11-25T05:08:45.426Z,95.90
2018-11-25T05:11:12.928Z,95.90
2018-11-25T05:13:40.402Z,95.90
2018-11-25T05:16:07.869Z,95.90
2018-11-25T05:18:35.323Z,95.90
2018-11-25T05:21:02.838Z,95.90
2018-11-25T05:23:30.465Z,95.90
2018-11-25T05:25:57.946Z,95.90
2018-11-25T05:28:25.453Z,95.90
2018-11-25T05:30:54.182Z,95.90
2018-11-25T05:33:22.314Z,95.90
2018-11-25T05:35:49.846Z,95.90
2018-11-25T05:38:17.550Z,95.90
2018-11-25T05:40:44.994Z,96.20
2018-11-25T05:43:12.595Z,95.80
2018-11-25T05:45:40.179Z,95.90
2018-11-25T05:48:07.792Z,95.80
2018-11-25T05:50:35.309Z,95.80
2018-11-25T05:53:02.774Z,95.80
2018-11-25T05:55:30.306Z,95.80
2018-11-25T05:57:57.902Z,95.80
2018-11-25T06:00:30.965Z,95.80
2018-11-25T06:02:58.543Z,96.10
2018-11-25T06:05:26.566Z,95.80
2018-11-25T06:07:54.093Z,95.80
2018-11-25T06:10:21.941Z,95.80
2018-11-25T06:12:49.428Z,95.80
2018-11-25T06:15:17.037Z,95.80
2018-11-25T06:17:44.583Z,95.80
2018-11-25T06:20:13.119Z,95.80
2018-11-25T06:22:40.790Z,96.00
2018-11-25T06:25:10.013Z,95.80
2018-11-25T06:27:38.173Z,95.80
2018-11-25T06:30:07.869Z,95.80
2018-11-25T06:32:35.379Z,95.80
2018-11-25T06:35:03.174Z,95.80
2018-11-25T06:37:31.517Z,95.80
2018-11-25T06:39:59.034Z,95.70
2018-11-25T06:42:26.768Z,95.80
2018-11-25T06:44:54.389Z,95.80
2018-11-25T06:47:21.974Z,95.70
2018-11-25T06:49:49.494Z,95.70
2018-11-25T06:52:17.394Z,95.70
2018-11-25T06:54:44.919Z,95.70
2018-11-25T06:57:12.590Z,95.70
2018-11-25T06:59:40.106Z,95.70
2018-11-25T07:02:07.711Z,95.70
2018-11-25T07:04:35.187Z,95.70
2018-11-25T07:07:02.722Z,95.70
2018-11-25T07:12:06.671Z,95.70
2018-11-25T07:14:34.493Z,95.70
2018-11-25T07:17:02.109Z,95.70
2018-11-25T07:19:29.682Z,95.70
2018-11-25T07:21:57.263Z,95.70
2018-11-25T07:24:24.756Z,95.70
2018-11-25T07:26:52.334Z,95.70
2018-11-25T07:29:19.903Z,95.70
2018-11-25T07:31:47.437Z,95.60
2018-11-25T07:34:15.164Z,95.70
2018-11-25T07:36:42.704Z,95.60
2018-11-25T07:39:10.367Z,95.70
2018-11-25T07:41:37.911Z,95.70
2018-11-25T07:46:39.807Z,95.60
2018-11-25T07:49:07.345Z,95.60
2018-11-25T07:51:35.128Z,95.60
2018-11-25T07:54:02.687Z,95.60
2018-11-25T07:56:30.683Z,95.60
2018-11-25T07:58:58.263Z,95.70
2018-11-25T08:01:26.073Z,95.70
2018-11-25T08:03:53.638Z,95.60
2018-11-25T08:06:21.226Z,95.60
2018-11-25T08:08:48.743Z,95.60
2018-11-25T08:11:16.644Z,95.60
2018-11-25T08:13:44.222Z,95.60
2018-11-25T08:16:11.812Z,95.60
2018-11-25T08:18:39.392Z,95.60
2018-11-25T08:21:07.033Z,95.90
2018-11-25T08:23:34.824Z,95.80
2018-11-25T08:26:02.533Z,95.60
2018-11-25T08:28:30.394Z,95.60
2018-11-25T08:30:58.062Z,95.60
2018-11-25T08:33:25.882Z,95.60
2018-11-25T08:35:53.850Z,95.60
2018-11-25T08:38:21.463Z,95.60
2018-11-25T08:40:50.187Z,95.90
2018-11-25T08:43:17.748Z,95.60
2018-11-25T08:45:45.530Z,95.60
2018-11-25T08:48:13.144Z,95.70
2018-11-25T08:50:40.849Z,95.60
2018-11-25T08:53:57.481Z,95.60
2018-11-25T08:56:25.180Z,95.60
2018-11-25T08:58:53.374Z,95.60
2018-11-25T09:01:21.212Z,95.60
2018-11-25T09:03:48.708Z,95.60
2018-11-25T09:06:16.277Z,95.60
2018-11-25T09:08:43.951Z,95.90
2018-11-25T09:11:11.536Z,95.60
2018-11-25T09:13:39.130Z,95.90
2018-11-25T09:16:06.728Z,95.60
2018-11-25T09:18:34.651Z,95.60
2018-11-25T09:21:02.189Z,95.60
2018-11-25T09:23:30.359Z,95.60
2018-11-25T09:25:57.981Z,95.90
2018-11-25T09:28:26.639Z,95.60
2018-11-25T09:30:54.133Z,95.60
2018-11-25T09:33:21.884Z,95.60
2018-11-25T09:35:49.623Z,95.60
2018-11-25T09:38:17.183Z,95.60
2018-11-25T09:40:44.888Z,95.60
2018-11-25T09:43:12.404Z,95.60
2018-11-25T09:45:39.981Z,95.60
2018-11-25T09:48:07.561Z,95.60
2018-11-25T09:50:35.366Z,95.50
2018-11-25T09:53:02.970Z,95.50
2018-11-25T09:55:30.840Z,95.50
2018-11-25T09:58:00.212Z,95.50
2018-11-25T10:00:34.948Z,95.50
2018-11-25T10:03:03.795Z,95.50
2018-11-25T10:05:31.811Z,95.50
2018-11-25T10:07:59.392Z,95.50
2018-11-25T10:10:27.579Z,95.50
2018-11-25T10:12:55.290Z,95.40
2018-11-25T10:15:24.258Z,95.40
2018-11-25T10:17:59.028Z,95.40
2018-11-25T10:20:21.690Z,95.40
2018-11-25T10:22:49.248Z,95.40
2018-11-25T10:25:17.223Z,95.40
2018-11-25T10:27:44.993Z,95.40
2018-11-25T10:30:14.371Z,95.30
2018-11-25T10:32:42.467Z,95.30
2018-11-25T10:35:10.378Z,95.30
2018-11-25T10:37:38.508Z,95.30
2018-11-25T10:40:09.887Z,95.30
2018-11-25T10:42:38.552Z,95.30
2018-11-25T10:45:08.750Z,95.30
2018-11-25T10:47:36.890Z,95.30
2018-11-25T10:50:05.237Z,95.30
2018-11-25T10:52:32.917Z,95.30
2018-11-25T10:55:00.961Z,95.30
2018-11-25T10:57:28.527Z,95.30
2018-11-25T10:59:56.140Z,95.20
2018-11-25T11:02:29.266Z,95.20
2018-11-25T11:05:02.510Z,95.30
2018-11-25T11:07:35.717Z,95.20
2018-11-25T11:10:03.684Z,95.20
2018-11-25T11:12:32.275Z,95.20
2018-11-25T11:14:59.901Z,95.50
2018-11-25T11:17:27.936Z,95.50
2018-11-25T11:19:55.590Z,95.20
2018-11-25T11:22:23.205Z,95.20
2018-11-25T11:24:50.803Z,95.20
2018-11-25T11:27:18.499Z,95.20
2018-11-25T11:29:46.137Z,95.20
2018-11-25T11:32:13.808Z,95.10
2018-11-25T11:34:41.425Z,95.10
2018-11-25T11:37:09.485Z,95.10
2018-11-25T11:39:37.043Z,95.10
2018-11-25T11:42:04.736Z,95.10
2018-11-25T11:44:32.431Z,95.10
2018-11-25T11:47:00.148Z,95.10
2018-11-25T11:49:27.889Z,95.40
2018-11-25T11:51:55.521Z,95.10
2018-11-25T11:54:23.101Z,95.10
2018-11-25T11:56:50.872Z,95.10
2018-11-25T11:59:18.458Z,95.10
2018-11-25T12:01:46.125Z,95.10
2018-11-25T12:04:14.006Z,95.10
2018-11-25T12:06:41.544Z,95.10
2018-11-25T12:09:10.035Z,95.10
2018-11-25T12:11:37.685Z,95.10
2018-11-25T12:14:05.484Z,95.10
2018-11-25T12:16:33.040Z,95.10
2018-11-25T12:19:00.682Z,95.10
2018-11-25T12:21:28.340Z,95.10
2018-11-25T12:23:55.932Z,95.10
2018-11-25T12:26:23.520Z,95.10
2018-11-25T12:28:51.140Z,95.10
2018-11-25T12:31:18.806Z,95.10
2018-11-25T12:33:46.436Z,95.10
2018-11-25T12:36:14.125Z,95.10
2018-11-25T12:38:41.758Z,95.10
2018-11-25T12:41:09.356Z,95.10
2018-11-25T12:43:36.948Z,95.10
2018-11-25T12:46:04.623Z,95.10
2018-11-25T12:48:32.271Z,95.10
2018-11-25T12:50:59.826Z,95.10
2018-11-25T12:53:27.975Z,95.10
2018-11-25T12:55:55.623Z,95.10
2018-11-25T12:58:23.415Z,95.10
2018-11-25T13:00:51.046Z,95.10
2018-11-25T13:03:18.573Z,95.10
2018-11-25T13:05:46.673Z,95.10
2018-11-25T13:08:14.194Z,95.10
2018-11-25T13:10:41.917Z,95.10
2018-11-25T13:13:10.533Z,95.10
2018-11-25T13:15:38.146Z,95.00
2018-11-25T13:18:06.997Z,95.10
2018-11-25T13:20:34.613Z,95.20
2018-11-25T13:23:02.232Z,95.00
2018-11-25T13:25:30.249Z,95.00
2018-11-25T13:27:57.969Z,95.00
2018-11-25T13:30:27.263Z,95.00
2018-11-25T13:32:56.777Z,95.00
2018-11-25T13:35:26.144Z,95.00
2018-11-25T13:37:53.882Z,95.10
2018-11-25T13:40:21.934Z,95.10
2018-11-25T13:42:50.817Z,95.10
2018-11-25T13:45:18.440Z,95.10
2018-11-25T13:47:46.021Z,95.10
2018-11-25T13:50:17.798Z,95.10
2018-11-25T13:52:45.417Z,95.10
2018-11-25T13:55:17.541Z,95.10
2018-11-25T13:57:45.430Z,95.10
2018-11-25T14:00:31.240Z,95.20
2018-11-25T14:02:59.248Z,95.20
2018-11-25T14:05:27.357Z,95.20
2018-11-25T14:07:55.092Z,95.20
2018-11-25T14:10:26.925Z,95.20
2018-11-25T14:12:54.689Z,95.20
2018-11-25T14:15:22.357Z,95.20
2018-11-25T14:17:49.934Z,95.20
2018-11-25T14:20:17.528Z,95.20
2018-11-25T14:22:45.383Z,95.20
2018-11-25T14:25:14.878Z,95.20
2018-11-25T14:27:42.817Z,95.20
2018-11-25T14:30:13.437Z,95.30
2018-11-25T14:32:40.005Z,95.30
2018-11-25T14:35:09.604Z,95.20
2018-11-25T14:37:37.176Z,95.20
2018-11-25T14:40:07.653Z,95.20
2018-11-25T14:42:35.372Z,95.20
2018-11-25T14:45:03.083Z,95.20
2018-11-25T14:47:31.268Z,95.20
2018-11-25T14:49:58.891Z,95.20
2018-11-25T14:52:26.831Z,95.10
2018-11-25T14:54:54.397Z,95.20
2018-11-25T14:57:22.063Z,95.20
2018-11-25T14:59:49.663Z,95.10
2018-11-25T15:02:17.320Z,95.10
2018-11-25T15:04:44.928Z,95.10
2018-11-25T15:07:12.503Z,95.10
2018-11-25T15:09:40.207Z,95.10
2018-11-25T15:12:07.848Z,95.10
2018-11-25T15:14:35.508Z,95.10
2018-11-25T15:17:03.193Z,95.10
2018-11-25T15:19:31.224Z,95.10
2018-11-25T15:21:58.870Z,95.10
2018-11-25T15:24:26.972Z,95.10
2018-11-25T15:26:54.610Z,95.10
2018-11-25T15:29:22.184Z,95.10
2018-11-25T15:31:49.784Z,95.10
2018-11-25T15:34:17.418Z,95.10
2018-11-25T15:36:45.056Z,95.10
2018-11-25T15:39:12.639Z,95.10
2018-11-25T15:41:40.287Z,95.00
2018-11-25T15:44:08.064Z,95.00
2018-11-25T15:46:35.865Z,95.00
2018-11-25T15:49:03.509Z,95.00
2018-11-25T15:51:31.203Z,94.90
2018-11-25T15:53:59.028Z,94.90
2018-11-25T15:56:26.960Z,94.90
2018-11-25T15:58:54.649Z,94.90
2018-11-25T16:01:22.261Z,94.90
2018-11-25T16:03:49.884Z,94.90
2018-11-25T16:06:30.545Z,94.90
2018-11-25T16:09:04.338Z,94.80
2018-11-25T16:11:32.865Z,94.90
2018-11-25T16:14:00.564Z,94.80
2018-11-25T16:16:28.220Z,94.80
2018-11-25T16:18:55.961Z,94.80
2018-11-25T16:21:23.585Z,94.80
2018-11-25T16:23:51.203Z,94.80
2018-11-25T16:26:22.546Z,94.70
2018-11-25T16:28:52.384Z,94.80
2018-11-25T16:31:20.358Z,94.70
2018-11-25T16:33:48.091Z,94.90
2018-11-25T16:36:15.930Z,94.70
2018-11-25T16:38:43.457Z,94.70
2018-11-25T16:41:11.069Z,94.70
2018-11-25T16:43:38.621Z,94.70
2018-11-25T16:46:06.277Z,94.60
2018-11-25T16:48:34.104Z,94.60
2018-11-25T16:51:01.832Z,94.60
2018-11-25T16:53:29.513Z,94.60
2018-11-25T16:55:57.032Z,94.60
2018-11-25T16:58:24.747Z,94.60
2018-11-25T17:00:52.365Z,94.60
2018-11-25T17:03:20.412Z,94.60
2018-11-25T17:05:49.782Z,94.60
2018-11-25T17:08:22.903Z,94.60
2018-11-25T17:10:50.728Z,94.60
2018-11-25T17:13:18.319Z,94.60
2018-11-25T17:15:46.302Z,94.50
2018-11-25T17:18:13.964Z,94.60
2018-11-25T17:20:42.248Z,94.50
2018-11-25T17:23:10.094Z,94.50
2018-11-25T17:25:37.704Z,94.50
2018-11-25T17:28:08.472Z,94.50
2018-11-25T17:30:37.973Z,94.50
2018-11-25T17:33:06.603Z,94.50
2018-11-25T17:35:34.172Z,94.50
2018-11-25T17:38:01.862Z,94.50
2018-11-25T17:40:29.627Z,94.50
2018-11-25T17:42:57.395Z,94.50
2018-11-25T17:45:24.960Z,94.50
2018-11-25T17:47:52.628Z,94.50
2018-11-25T17:50:22.693Z,94.50
2018-11-25T17:52:50.240Z,94.50
2018-11-25T17:55:18.780Z,94.50
2018-11-25T17:57:46.368Z,94.50
2018-11-25T18:00:20.519Z,94.50
2018-11-25T18:02:48.092Z,94.50
2018-11-25T18:05:15.644Z,94.50
2018-11-25T18:07:43.257Z,94.50
2018-11-25T18:10:12.095Z,94.50
2018-11-25T18:12:41.378Z,94.50
2018-11-25T18:15:14.020Z,94.50
2018-11-25T18:17:44.140Z,94.50
2018-11-25T18:20:11.944Z,94.50
2018-11-25T18:22:43.638Z,94.50
2018-11-25T18:25:16.120Z,94.50
2018-11-25T18:27:43.826Z,94.60
2018-11-25T18:30:12.925Z,94.60
2018-11-25T18:32:40.961Z,94.60
2018-11-25T18:35:09.348Z,94.60
2018-11-25T18:37:37.317Z,94.60
2018-11-25T18:40:07.465Z,94.60
2018-11-25T18:42:35.528Z,94.60
2018-11-25T18:45:03.615Z,94.60
2018-11-25T18:47:31.316Z,94.60
2018-11-25T18:49:58.980Z,94.60
2018-11-25T18:52:26.776Z,94.60
2018-11-25T18:54:53.396Z,94.60
2018-11-25T18:57:21.092Z,94.70
2018-11-25T18:59:48.804Z,94.70
2018-11-25T19:02:18.928Z,94.60
2018-11-25T19:04:46.796Z,94.70
2018-11-25T19:07:14.440Z,94.70
2018-11-25T19:09:42.029Z,94.70
2018-11-25T19:12:10.004Z,94.70
2018-11-25T19:14:37.984Z,94.70
2018-11-25T19:17:05.537Z,94.70
2018-11-25T19:19:33.340Z,94.70
2018-11-25T19:22:01.373Z,94.70
2018-11-25T19:24:28.913Z,94.70
2018-11-25T19:26:56.624Z,94.70
2018-11-25T19:29:24.718Z,94.70
2018-11-25T19:31:52.434Z,94.60
2018-11-25T19:34:20.337Z,94.60
2018-11-25T19:36:47.934Z,94.60
2018-11-25T19:39:15.656Z,94.60
2018-11-25T19:41:43.355Z,94.60
2018-11-25T19:44:11.205Z,94.50
2018-11-25T19:46:38.949Z,94.50
2018-11-25T19:49:06.577Z,94.50
2018-11-25T19:51:34.217Z,94.50
2018-11-25T19:54:01.859Z,94.40
2018-11-25T19:56:29.380Z,94.40
2018-11-25T19:58:59.639Z,94.40
2018-11-25T20:01:29.184Z,94.30
2018-11-25T20:03:56.973Z,94.30
2018-11-25T20:06:24.585Z,94.40
2018-11-25T20:08:52.124Z,94.30
2018-11-25T20:11:19.727Z,94.30
2018-11-25T20:13:47.346Z,94.20
2018-11-25T20:16:20.683Z,94.10
2018-11-25T20:18:48.263Z,94.10
2018-11-25T20:21:21.522Z,94.10
2018-11-25T20:23:49.308Z,94.10
2018-11-25T20:26:16.896Z,94.10
2018-11-25T20:28:44.470Z,94.10
2018-11-25T20:31:12.076Z,94.00
2018-11-25T20:33:52.170Z,93.90
2018-11-25T20:36:14.896Z,93.90
2018-11-25T20:38:48.343Z,94.00
2018-11-25T20:41:15.912Z,93.90
2018-11-25T20:43:43.619Z,93.80
2018-11-25T20:46:16.880Z,93.80
2018-11-25T20:48:44.579Z,93.80
2018-11-25T20:51:12.184Z,93.70
2018-11-25T20:53:45.653Z,93.60
2018-11-25T20:56:13.183Z,93.70
2018-11-25T20:58:40.759Z,93.60
2018-11-25T21:01:08.470Z,93.60
2018-11-25T21:03:36.200Z,93.60
2018-11-25T21:06:04.129Z,93.60
2018-11-25T21:08:31.680Z,93.60
2018-11-25T21:10:59.283Z,93.60
2018-11-25T21:13:26.993Z,93.50
2018-11-25T21:15:54.652Z,93.50
2018-11-25T21:18:22.539Z,93.50
2018-11-25T21:20:51.272Z,93.40
2018-11-25T21:23:17.973Z,93.40
2018-11-25T21:25:45.484Z,93.40
2018-11-25T21:28:13.099Z,93.70
2018-11-25T21:30:47.403Z,93.40
2018-11-25T21:33:15.648Z,93.40
2018-11-25T21:35:47.780Z,93.30
2018-11-25T21:38:20.686Z,93.20
2018-11-25T21:40:53.273Z,93.30
2018-11-25T21:43:26.063Z,93.30
2018-11-25T21:45:58.198Z,93.20
2018-11-25T21:48:26.460Z,93.50
2018-11-25T21:50:54.039Z,93.20
2018-11-25T21:53:21.619Z,93.20
2018-11-25T21:58:16.947Z,93.20
2018-11-25T22:00:44.476Z,93.20
2018-11-25T22:03:12.044Z,93.20
2018-11-25T22:05:39.742Z,93.20
2018-11-25T22:08:07.516Z,93.30
2018-11-25T22:10:35.193Z,93.20
2018-11-25T22:13:02.804Z,93.20
2018-11-25T22:15:30.368Z,93.20
2018-11-25T22:18:08.157Z,93.20
2018-11-25T22:20:35.723Z,93.20
2018-11-25T22:23:03.281Z,93.10
2018-11-25T22:25:30.871Z,93.10
2018-11-25T22:27:58.520Z,93.20
2018-11-25T22:30:26.088Z,93.20
2018-11-25T22:32:53.715Z,93.20
2018-11-25T22:35:22.296Z,93.10
2018-11-25T22:37:49.888Z,93.10
2018-11-25T22:40:18.253Z,93.10
2018-11-25T22:42:46.891Z,93.10
2018-11-25T22:45:17.560Z,93.10
2018-11-25T22:47:45.135Z,93.10
2018-11-25T22:50:13.943Z,93.10
2018-11-25T22:52:41.718Z,93.10
2018-11-25T22:55:14.888Z,93.10
2018-11-25T22:57:42.825Z,93.00
2018-11-25T23:00:20.208Z,93.10
2018-11-25T23:02:47.745Z,93.00
2018-11-25T23:05:26.853Z,93.00
2018-11-25T23:07:54.547Z,93.00
2018-11-25T23:10:22.116Z,93.00
2018-11-25T23:12:49.897Z,93.00
2018-11-25T23:15:17.478Z,93.00
2018-11-25T23:17:45.164Z,93.00
2018-11-25T23:20:12.863Z,93.00
2018-11-25T23:22:40.559Z,93.00
2018-11-25T23:25:08.236Z,93.00
2018-11-25T23:27:35.802Z,93.00
2018-11-25T23:30:03.565Z,93.00
2018-11-25T23:32:31.202Z,93.00
2018-11-25T23:34:58.793Z,93.00
2018-11-25T23:37:26.340Z,93.00
2018-11-25T23:39:53.893Z,93.00
2018-11-25T23:42:21.510Z,93.10
2018-11-25T23:44:49.048Z,93.00
2018-11-25T23:47:16.612Z,93.00
2018-11-25T23:49:44.187Z,93.00
2018-11-25T23:52:11.757Z,92.90
2018-11-25T23:54:39.623Z,92.90
2018-11-25T23:57:07.208Z,92.90
2018-11-25T23:59:34.807Z,92.90
